createdAt,value
2022-08-17T00:01:30.360Z,16.67
2022-08-17T00:04:26.541Z,21.00
2022-08-17T00:07:13.307Z,20.03
2022-08-17T00:10:01.515Z,19.33
2022-08-17T00:12:48.337Z,19.80
2022-08-17T00:15:35.046Z,14.63
2022-08-17T00:19:01.627Z,16.77
2022-08-17T00:21:59.923Z,19.47
2022-08-17T00:24:36.062Z,21.03
2022-08-17T00:27:24.175Z,15.83
2022-08-17T00:30:14.333Z,17.40
2022-08-17T00:33:13.956Z,18.13
2022-08-17T00:36:06.061Z,18.43
2022-08-17T00:38:52.969Z,18.93
2022-08-17T00:41:42.376Z,15.63
2022-08-17T00:44:31.286Z,21.17
2022-08-17T00:47:18.135Z,12.53
2022-08-17T00:50:06.365Z,16.07
2022-08-17T00:52:57.222Z,15.80
2022-08-17T00:55:43.932Z,17.90
2022-08-17T00:58:36.666Z,16.57
2022-08-17T01:01:26.249Z,18.77
2022-08-17T01:04:14.320Z,18.80
2022-08-17T01:07:03.012Z,14.53
2022-08-17T01:09:50.046Z,17.77
2022-08-17T01:12:38.185Z,18.40
2022-08-17T01:15:25.074Z,16.43
2022-08-17T01:18:14.816Z,17.80
2022-08-17T01:21:08.060Z,17.17
2022-08-17T01:23:57.073Z,14.23
2022-08-17T01:26:47.228Z,16.60
2022-08-17T01:29:38.040Z,17.40
2022-08-17T01:32:25.123Z,18.83
2022-08-17T01:35:11.789Z,19.30
2022-08-17T01:37:58.630Z,16.53
2022-08-17T01:40:50.622Z,17.33
2022-08-17T01:43:56.918Z,19.53
2022-08-17T01:46:43.883Z,15.73
2022-08-17T01:49:30.612Z,17.83
2022-08-17T01:52:19.165Z,17.40
2022-08-17T01:55:07.710Z,17.67
2022-08-17T01:57:56.131Z,16.73
2022-08-17T02:00:59.991Z,15.13
2022-08-17T02:03:56.267Z,19.33
2022-08-17T02:06:54.053Z,15.87
2022-08-17T02:09:41.201Z,16.43
2022-08-17T02:12:38.397Z,18.50
2022-08-17T02:15:28.721Z,19.20
2022-08-17T02:18:16.324Z,17.73
2022-08-17T02:21:03.210Z,16.10
2022-08-17T02:23:51.341Z,15.47
2022-08-17T02:26:38.309Z,15.13
2022-08-17T02:29:25.081Z,17.20
2022-08-17T02:32:20.913Z,16.43
2022-08-17T02:35:15.711Z,14.03
2022-08-17T02:38:06.888Z,13.73
2022-08-17T02:40:53.649Z,17.07
2022-08-17T02:43:40.962Z,15.23
2022-08-17T02:46:28.426Z,18.03
2022-08-17T02:49:16.442Z,18.70
2022-08-17T02:52:04.875Z,16.53
2022-08-17T02:54:51.807Z,21.33
2022-08-17T02:57:38.808Z,21.80
2022-08-17T03:00:29.377Z,18.70
2022-08-17T03:03:19.652Z,16.70
2022-08-17T03:06:09.164Z,17.67
2022-08-17T03:08:55.972Z,19.37
2022-08-17T03:11:42.694Z,20.37
2022-08-17T03:14:29.255Z,18.83
2022-08-17T03:17:17.493Z,20.50
2022-08-17T03:20:05.415Z,21.67
2022-08-17T03:23:01.751Z,19.60
2022-08-17T03:25:49.896Z,20.47
2022-08-17T03:28:40.667Z,24.53
2022-08-17T03:31:27.604Z,21.50
2022-08-17T03:34:14.711Z,19.80
2022-08-17T03:37:01.342Z,23.90
2022-08-17T03:39:49.412Z,20.70
2022-08-17T03:42:38.259Z,18.10
2022-08-17T03:45:40.510Z,20.60
2022-08-17T03:48:54.818Z,20.20
2022-08-17T03:51:58.873Z,19.00
2022-08-17T03:55:12.526Z,22.27
2022-08-17T03:58:00.478Z,19.67
2022-08-17T04:00:47.474Z,24.40
2022-08-17T04:03:34.591Z,21.57
2022-08-17T04:06:21.097Z,22.83
2022-08-17T04:09:08.392Z,21.43
2022-08-17T04:11:55.589Z,22.20
2022-08-17T04:14:53.223Z,20.47
2022-08-17T04:17:41.465Z,22.63
2022-08-17T04:20:28.383Z,22.53
2022-08-17T04:23:17.909Z,18.27
2022-08-17T04:26:05.317Z,16.80
2022-08-17T04:28:52.141Z,19.13
2022-08-17T04:31:40.238Z,15.37
2022-08-17T04:34:27.055Z,18.97
2022-08-17T04:37:13.813Z,17.43
2022-08-17T04:40:14.472Z,22.20
2022-08-17T04:43:06.149Z,16.80
2022-08-17T04:45:56.658Z,14.87
2022-08-17T04:48:47.294Z,15.90
2022-08-17T04:51:35.998Z,12.70
2022-08-17T04:54:23.047Z,16.73
2022-08-17T04:57:09.670Z,17.97
2022-08-17T04:59:56.451Z,14.43
2022-08-17T05:02:49.880Z,15.53
2022-08-17T05:05:43.225Z,16.83
2022-08-17T05:08:30.232Z,12.77
2022-08-17T05:11:16.990Z,14.47
2022-08-17T05:14:04.621Z,14.83
2022-08-17T05:16:51.283Z,21.73
2022-08-17T05:19:38.158Z,16.00
2022-08-17T05:22:27.218Z,14.57
2022-08-17T05:25:14.567Z,15.00
2022-08-17T05:28:02.203Z,14.00
2022-08-17T05:30:50.213Z,14.63
2022-08-17T05:33:42.667Z,22.17
2022-08-17T05:36:42.691Z,17.00
2022-08-17T05:39:32.537Z,16.10
2022-08-17T05:42:20.092Z,15.77
2022-08-17T05:45:07.766Z,17.33
2022-08-17T05:47:54.385Z,17.07
2022-08-17T05:50:50.715Z,15.17
2022-08-17T05:53:44.609Z,17.60
2022-08-17T05:56:48.823Z,20.40
2022-08-17T05:59:45.778Z,16.97
2022-08-17T06:02:50.166Z,19.10
2022-08-17T06:05:49.676Z,16.77
2022-08-17T06:08:46.253Z,21.87
2022-08-17T06:11:40.535Z,16.50
2022-08-17T06:14:48.344Z,17.20
2022-08-17T06:17:35.810Z,21.30
2022-08-17T06:20:22.633Z,19.03
2022-08-17T06:23:14.566Z,17.73
2022-08-17T06:26:05.419Z,20.13
2022-08-17T06:28:56.169Z,18.87
2022-08-17T06:31:44.690Z,15.67
2022-08-17T06:34:35.667Z,17.93
2022-08-17T06:37:52.107Z,21.10
2022-08-17T06:40:58.242Z,15.00
2022-08-17T06:44:01.927Z,21.97
2022-08-17T06:46:52.361Z,15.93
2022-08-17T06:49:50.545Z,14.67
2022-08-17T06:52:49.913Z,15.27
2022-08-17T06:55:45.312Z,12.53
2022-08-17T06:58:33.421Z,15.80
2022-08-17T07:01:31.038Z,15.03
2022-08-17T07:04:22.559Z,15.57
2022-08-17T07:07:26.152Z,15.80
2022-08-17T07:10:14.791Z,15.40
2022-08-17T07:13:26.619Z,13.47
2022-08-17T07:16:19.594Z,12.13
2022-08-17T07:19:11.050Z,13.37
2022-08-17T07:22:08.030Z,11.77
2022-08-17T07:24:58.603Z,16.90
2022-08-17T07:27:51.180Z,12.73
2022-08-17T07:30:47.340Z,12.73
2022-08-17T07:33:38.320Z,10.63
2022-08-17T07:36:33.779Z,16.57
2022-08-17T07:39:28.005Z,13.03
2022-08-17T07:42:14.946Z,12.83
2022-08-17T07:45:24.117Z,12.03
2022-08-17T07:48:21.580Z,10.07
2022-08-17T07:51:19.328Z,13.17
2022-08-17T07:54:25.473Z,13.50
2022-08-17T07:57:30.795Z,11.17
2022-08-17T08:00:31.651Z,11.00
2022-08-17T08:03:27.325Z,11.23
2022-08-17T08:06:21.807Z,10.90
2022-08-17T08:09:09.305Z,12.97
2022-08-17T08:11:57.489Z,8.47
2022-08-17T08:14:54.656Z,8.50
2022-08-17T08:17:52.932Z,8.80
2022-08-17T08:20:53.474Z,8.23
2022-08-17T08:23:47.706Z,11.10
2022-08-17T08:26:42.399Z,11.73
2022-08-17T08:29:44.225Z,9.90
2022-08-17T08:32:50.926Z,9.30
2022-08-17T08:35:44.540Z,8.13
2022-08-17T08:38:47.479Z,7.97
2022-08-17T08:41:44.922Z,10.83
2022-08-17T08:45:00.029Z,10.07
2022-08-17T08:48:05.886Z,6.77
2022-08-17T08:51:01.149Z,9.27
2022-08-17T08:53:58.971Z,8.90
2022-08-17T08:57:21.462Z,8.93
2022-08-17T09:00:08.820Z,9.17
2022-08-17T09:03:52.757Z,8.53
2022-08-17T09:07:09.351Z,9.30
2022-08-17T09:10:10.410Z,6.00
2022-08-17T09:13:10.184Z,9.03
2022-08-17T09:16:02.238Z,7.57
2022-08-17T09:19:02.231Z,6.80
2022-08-17T09:21:55.010Z,6.23
2022-08-17T09:24:47.825Z,12.93
2022-08-17T09:27:39.425Z,7.50
2022-08-17T09:30:29.386Z,6.87
2022-08-17T09:33:26.258Z,6.37
2022-08-17T09:36:21.842Z,10.10
2022-08-17T09:39:14.590Z,6.93
2022-08-17T09:42:15.500Z,6.60
2022-08-17T09:45:17.351Z,9.53
2022-08-17T09:48:13.157Z,7.80
2022-08-17T09:51:08.051Z,8.10
2022-08-17T09:54:21.071Z,4.90
2022-08-17T09:57:30.226Z,8.13
2022-08-17T10:00:25.239Z,8.53
2022-08-17T10:03:38.270Z,6.93
2022-08-17T10:06:31.443Z,6.43
2022-08-17T10:09:28.730Z,5.13
2022-08-17T10:12:30.095Z,7.17
2022-08-17T10:15:37.693Z,5.83
2022-08-17T10:18:37.815Z,5.10
2022-08-17T10:21:44.439Z,5.93
2022-08-17T10:25:21.618Z,6.77
2022-08-17T10:28:03.425Z,8.23
2022-08-17T10:31:10.407Z,6.07
2022-08-17T10:34:38.886Z,5.40
2022-08-17T10:38:06.743Z,13.00
2022-08-17T10:40:57.365Z,6.50
2022-08-17T10:44:38.353Z,9.40
2022-08-17T10:47:12.875Z,7.17
2022-08-17T10:50:34.457Z,6.67
2022-08-17T10:53:54.502Z,10.77
2022-08-17T10:56:45.077Z,5.03
2022-08-17T10:59:53.192Z,6.03
2022-08-17T11:02:49.577Z,5.17
2022-08-17T11:05:58.925Z,5.00
2022-08-17T11:09:27.961Z,6.27
2022-08-17T11:12:27.963Z,10.90
2022-08-17T11:15:25.567Z,6.00
2022-08-17T11:18:46.814Z,6.53
2022-08-17T11:22:08.212Z,5.73
2022-08-17T11:24:58.602Z,5.13
2022-08-17T11:27:47.256Z,5.40
2022-08-17T11:30:52.293Z,4.93
2022-08-17T11:33:58.979Z,5.70
2022-08-17T11:37:27.419Z,5.67
2022-08-17T11:40:43.242Z,6.37
2022-08-17T11:43:56.922Z,7.80
2022-08-17T11:47:14.813Z,8.47
2022-08-17T11:50:36.995Z,6.93
2022-08-17T11:54:21.538Z,7.57
2022-08-17T11:58:01.825Z,4.90
2022-08-17T12:00:57.769Z,7.30
2022-08-17T12:03:54.024Z,6.17
2022-08-17T12:06:47.947Z,5.13
2022-08-17T12:09:39.951Z,10.33
2022-08-17T12:12:31.464Z,9.87
2022-08-17T12:15:20.760Z,8.40
2022-08-17T12:18:08.875Z,9.13
2022-08-17T12:21:25.371Z,5.57
2022-08-17T12:24:24.127Z,6.17
2022-08-17T12:27:13.136Z,8.53
2022-08-17T12:30:00.493Z,8.33
2022-08-17T12:32:48.591Z,6.23
2022-08-17T12:35:39.040Z,7.30
2022-08-17T12:38:32.745Z,5.53
2022-08-17T12:41:34.241Z,8.13
2022-08-17T12:44:23.394Z,7.33
2022-08-17T12:47:20.967Z,5.60
2022-08-17T12:50:29.516Z,5.33
2022-08-17T12:53:24.870Z,5.53
2022-08-17T12:56:14.257Z,6.27
2022-08-17T12:59:02.421Z,6.33
2022-08-17T13:01:49.504Z,5.70
2022-08-17T13:04:56.179Z,7.93
2022-08-17T13:07:43.789Z,6.27
2022-08-17T13:10:33.838Z,5.50
2022-08-17T13:13:28.044Z,7.93
2022-08-17T13:16:20.262Z,6.43
2022-08-17T13:19:10.198Z,7.03
2022-08-17T13:22:00.034Z,5.57
2022-08-17T13:24:54.580Z,5.00
2022-08-17T13:27:44.155Z,7.67
2022-08-17T13:30:33.806Z,5.70
2022-08-17T13:33:43.282Z,6.67
2022-08-17T13:36:33.784Z,5.37
2022-08-17T13:39:23.891Z,6.73
2022-08-17T13:42:32.866Z,5.27
2022-08-17T13:45:44.964Z,10.33
2022-08-17T13:48:37.473Z,10.33
2022-08-17T13:51:33.879Z,7.50
2022-08-17T13:54:27.157Z,6.07
2022-08-17T13:57:22.853Z,6.53
2022-08-17T14:00:13.324Z,4.90
2022-08-17T14:03:03.651Z,5.50
2022-08-17T14:05:51.752Z,11.17
2022-08-17T14:08:38.369Z,9.20
2022-08-17T14:11:25.690Z,6.67
2022-08-17T14:14:13.321Z,5.47
2022-08-17T14:16:59.848Z,5.43
2022-08-17T14:19:48.202Z,5.67
2022-08-17T14:22:38.210Z,5.27
2022-08-17T14:25:28.557Z,6.13
2022-08-17T14:28:15.348Z,5.83
2022-08-17T14:31:03.067Z,8.53
2022-08-17T14:33:49.615Z,8.97
2022-08-17T14:36:40.991Z,7.27
2022-08-17T14:39:34.666Z,7.63
2022-08-17T14:42:24.576Z,10.33
2022-08-17T14:45:32.075Z,5.57
2022-08-17T14:48:19.756Z,5.63
2022-08-17T14:51:06.874Z,6.50
2022-08-17T14:53:55.032Z,7.57
2022-08-17T14:56:41.587Z,7.40
2022-08-17T14:59:32.613Z,5.50
2022-08-17T15:02:19.811Z,5.93
2022-08-17T15:05:07.680Z,9.23
2022-08-17T15:07:55.883Z,6.20
2022-08-17T15:10:44.864Z,9.50
2022-08-17T15:13:32.042Z,5.93
2022-08-17T15:16:20.158Z,6.77
2022-08-17T15:19:07.978Z,6.97
2022-08-17T15:21:54.939Z,6.00
2022-08-17T15:24:41.603Z,5.13
2022-08-17T15:27:32.563Z,6.37
2022-08-17T15:30:19.980Z,5.83
2022-08-17T15:33:06.683Z,6.20
2022-08-17T15:35:54.245Z,5.20
2022-08-17T15:38:41.151Z,5.87
2022-08-17T15:41:31.818Z,6.83
2022-08-17T15:44:19.800Z,6.53
2022-08-17T15:47:07.010Z,6.13
2022-08-17T15:49:57.941Z,8.53
2022-08-17T15:52:47.622Z,6.77
2022-08-17T15:55:34.790Z,6.43
2022-08-17T15:58:21.240Z,6.03
2022-08-17T16:03:01.563Z,7.43
2022-08-17T16:04:43.999Z,9.20
2022-08-17T16:07:32.510Z,7.83
2022-08-17T16:10:19.771Z,7.13
2022-08-17T16:13:18.325Z,7.17
2022-08-17T16:16:08.359Z,7.20
2022-08-17T16:18:59.222Z,6.47
2022-08-17T16:21:46.113Z,7.83
2022-08-17T16:24:33.406Z,5.20
2022-08-17T16:27:21.319Z,9.87
2022-08-17T16:30:16.470Z,6.27
2022-08-17T16:33:05.808Z,8.67
2022-08-17T16:35:55.158Z,6.13
2022-08-17T16:38:42.476Z,8.07
2022-08-17T16:41:45.094Z,7.47
2022-08-17T16:44:33.457Z,8.83
2022-08-17T16:47:20.653Z,6.80
2022-08-17T16:50:09.211Z,5.53
2022-08-17T16:53:06.714Z,6.87
2022-08-17T16:55:53.496Z,10.63
2022-08-17T16:58:40.225Z,7.63
2022-08-17T17:01:28.742Z,9.50
2022-08-17T17:04:18.679Z,8.37
2022-08-17T17:07:21.074Z,8.33
2022-08-17T17:10:13.706Z,8.83
2022-08-17T17:13:03.798Z,8.00
2022-08-17T17:15:55.683Z,7.30
2022-08-17T17:18:52.421Z,6.90
2022-08-17T17:21:47.105Z,10.30
2022-08-17T17:24:45.911Z,7.80
2022-08-17T17:27:47.393Z,8.00
2022-08-17T17:30:41.012Z,8.47
2022-08-17T17:33:34.690Z,8.27
2022-08-17T17:36:27.226Z,11.30
2022-08-17T17:39:18.463Z,7.27
2022-08-17T17:42:09.859Z,8.63
2022-08-17T17:45:04.606Z,10.27
2022-08-17T17:47:51.584Z,8.63
2022-08-17T17:51:12.027Z,9.17
2022-08-17T17:54:07.687Z,6.80
2022-08-17T17:57:03.248Z,11.17
2022-08-17T17:59:57.705Z,6.13
2022-08-17T18:03:06.033Z,7.90
2022-08-17T18:06:12.733Z,8.10
2022-08-17T18:09:10.331Z,8.70
2022-08-17T18:12:13.957Z,8.67
2022-08-17T18:15:22.880Z,8.60
2022-08-17T18:18:37.775Z,7.67
2022-08-17T18:21:30.027Z,7.60
2022-08-17T18:24:30.948Z,7.87
2022-08-17T18:27:24.912Z,6.77
2022-08-17T18:30:27.359Z,8.80
2022-08-17T18:33:26.902Z,7.07
2022-08-17T18:36:14.170Z,8.67
2022-08-17T18:39:12.273Z,12.17
2022-08-17T18:42:00.171Z,9.77
2022-08-17T18:44:49.600Z,7.70
2022-08-17T18:47:54.726Z,7.57
2022-08-17T18:50:42.909Z,8.47
2022-08-17T18:53:35.240Z,6.60
2022-08-17T18:56:31.509Z,8.00
2022-08-17T18:59:28.983Z,10.03
2022-08-17T19:02:45.592Z,9.77
2022-08-17T19:05:37.553Z,8.00
2022-08-17T19:08:34.972Z,11.17
2022-08-17T19:11:27.167Z,8.17
2022-08-17T19:14:16.761Z,8.30
2022-08-17T19:17:10.552Z,10.53
2022-08-17T19:20:02.318Z,7.33
2022-08-17T19:23:06.620Z,9.40
2022-08-17T19:25:58.449Z,10.23
2022-08-17T19:28:48.906Z,11.37
2022-08-17T19:31:36.274Z,8.23
2022-08-17T19:34:33.417Z,11.27
2022-08-17T19:37:33.136Z,9.97
2022-08-17T19:40:51.570Z,9.10
2022-08-17T19:43:54.526Z,8.57
2022-08-17T19:46:49.936Z,8.17
2022-08-17T19:49:48.544Z,11.00
2022-08-17T19:52:57.437Z,10.27
2022-08-17T19:55:53.768Z,11.07
2022-08-17T19:59:01.242Z,12.17
2022-08-17T20:01:52.593Z,14.17
2022-08-17T20:04:43.802Z,12.47
2022-08-17T20:07:40.048Z,13.77
2022-08-17T20:10:40.909Z,8.83
2022-08-17T20:13:36.177Z,11.80
2022-08-17T20:16:24.929Z,8.77
2022-08-17T20:19:22.885Z,12.70
2022-08-17T20:22:13.183Z,14.07
2022-08-17T20:25:08.244Z,11.00
2022-08-17T20:28:00.653Z,12.63
2022-08-17T20:30:53.622Z,10.27
2022-08-17T20:33:41.437Z,13.30
2022-08-17T20:36:28.317Z,16.80
2022-08-17T20:39:33.606Z,11.40
2022-08-17T20:42:33.711Z,14.10
2022-08-17T20:46:12.852Z,9.93
2022-08-17T20:49:17.167Z,14.07
2022-08-17T20:52:08.872Z,11.63
2022-08-17T20:54:58.137Z,10.93
2022-08-17T20:57:49.372Z,14.80
2022-08-17T21:00:50.374Z,14.67
2022-08-17T21:03:51.791Z,12.73
2022-08-17T21:07:29.246Z,12.17
2022-08-17T21:10:19.590Z,13.47
2022-08-17T21:13:47.037Z,12.17
2022-08-17T21:16:43.010Z,12.20
2022-08-17T21:20:09.726Z,16.30
2022-08-17T21:23:16.369Z,16.97
2022-08-17T21:26:13.681Z,12.67
2022-08-17T21:29:30.064Z,15.43
2022-08-17T21:32:24.446Z,17.00
2022-08-17T21:35:31.241Z,13.23
2022-08-17T21:38:22.365Z,14.37
2022-08-17T21:41:20.828Z,13.77
2022-08-17T21:44:21.728Z,15.07
2022-08-17T21:47:20.092Z,15.60
2022-08-17T21:50:20.163Z,14.03
2022-08-17T21:53:08.865Z,13.40
2022-08-17T21:55:57.060Z,15.80
2022-08-17T21:58:48.533Z,14.77
2022-08-17T22:01:38.388Z,13.13
2022-08-17T22:04:31.564Z,15.17
2022-08-17T22:07:36.182Z,14.77
2022-08-17T22:10:32.802Z,13.80
2022-08-17T22:13:24.232Z,13.93
2022-08-17T22:16:27.966Z,14.30
2022-08-17T22:19:16.259Z,15.60
2022-08-17T22:22:05.181Z,15.43
2022-08-17T22:24:56.840Z,16.97
2022-08-17T22:27:55.898Z,14.00
2022-08-17T22:30:59.460Z,14.97
2022-08-17T22:33:49.093Z,13.87
2022-08-17T22:36:39.015Z,15.77
2022-08-17T22:39:42.141Z,12.77
2022-08-17T22:42:28.979Z,17.20
2022-08-17T22:45:15.748Z,15.67
2022-08-17T22:48:04.248Z,13.03
2022-08-17T22:50:51.390Z,16.43
2022-08-17T22:53:55.632Z,15.43
2022-08-17T22:57:07.436Z,13.73
2022-08-17T22:59:57.648Z,16.57
2022-08-17T23:03:10.562Z,13.43
2022-08-17T23:06:06.310Z,11.97
2022-08-17T23:08:54.990Z,13.30
2022-08-17T23:11:49.089Z,17.40
2022-08-17T23:14:41.273Z,13.37
2022-08-17T23:17:30.389Z,16.00
2022-08-17T23:20:20.404Z,13.23
2022-08-17T23:23:09.039Z,14.87
2022-08-17T23:25:55.712Z,16.77
2022-08-17T23:28:43.908Z,17.60
2022-08-17T23:31:34.673Z,13.67
2022-08-17T23:34:21.524Z,12.97
2022-08-17T23:37:11.296Z,17.90
2022-08-17T23:39:58.214Z,14.07
2022-08-17T23:42:47.292Z,15.30
2022-08-17T23:45:33.961Z,14.40
2022-08-17T23:48:36.345Z,14.57
2022-08-17T23:51:28.609Z,16.03
2022-08-17T23:54:22.816Z,13.90
2022-08-17T23:57:09.993Z,15.67
2022-08-17T23:59:56.910Z,12.83
